»·PEaware :: N74KW 1L1-2O7

N74KW :: 1L1-2O7

FLIGHT INFORMATION

Flight Status: Arrived
Operator: Privately registered:
United States
More flights under this callsign
Pilot: Charles C. (26995)
Aircraft: MCDONNELL-DOUGLAS SKYTRAIN C-47
(DC3)
More flights by this aircraft type
Origin: 1L1 Lincoln Co
United States
Destination: 2O7 Independence
United States
More flights between these airports :: More routes between these airports
Route: 1L1 2O7
File this flight plan on PilotEdge
Remarks:
Altitude:
(Current/Filed)
8,500ft
Speed:
(Current/Filed)
150kts
Departed: 16-Aug-20 12:21 PM
Arrived: 16-Aug-20 01:44 PM
Distance/Time
Traveled:
190nm/1:23
Distance/Time
To Go:
Arrived

Flight Plot

Page will automatically refresh every two minutes.

Flight plan parsing failed; only flown route is shown


Map Options




Map Legend


Flown Route
Filed Route
Departure Airport
Arrival Airport
Navaid (VOR, NDB)
Fix

Horizontal Profiles

Position Reports

Time Latitude Longitude Heading Altitude Ground
Speed
16-Aug-20 12:17 37.793522 -114.420570 182 4842ft 0kts
16-Aug-20 12:18 37.793522 -114.420570 182 4842ft 0kts
16-Aug-20 12:19 37.793289 -114.420580 182 4842ft 15kts
16-Aug-20 12:20 37.768322 -114.418230 138 5145ft 113kts
16-Aug-20 12:21 37.781993 -114.406064 306 5437ft 137kts
16-Aug-20 12:22 37.774906 -114.452652 261 5997ft 140kts
16-Aug-20 12:23 37.767391 -114.500097 256 6532ft 141kts
16-Aug-20 12:24 37.756379 -114.547831 254 7048ft 145kts
16-Aug-20 12:25 37.745474 -114.593425 254 7565ft 147kts
16-Aug-20 12:26 37.733543 -114.643152 254 8120ft 148kts
16-Aug-20 12:27 37.721561 -114.692969 253 8592ft 152kts
16-Aug-20 12:28 37.708035 -114.749079 253 8553ft 173kts
16-Aug-20 12:29 37.694043 -114.807006 253 8552ft 171kts
16-Aug-20 12:30 37.680080 -114.864687 253 8552ft 171kts
16-Aug-20 12:31 37.666751 -114.919597 253 8552ft 171kts
16-Aug-20 12:32 37.652701 -114.977343 253 8551ft 171kts
16-Aug-20 12:33 37.638774 -115.032653 252 8548ft 171kts
16-Aug-20 12:34 37.624402 -115.090011 253 8543ft 171kts
16-Aug-20 12:35 37.610608 -115.145991 253 8539ft 171kts
16-Aug-20 12:36 37.596708 -115.202440 253 8535ft 171kts
16-Aug-20 12:37 37.582587 -115.259674 253 8534ft 171kts
16-Aug-20 12:38 37.568697 -115.315849 253 8494ft 162kts
16-Aug-20 12:40 37.555870 -115.367635 253 8496ft 149kts
16-Aug-20 12:41 37.543640 -115.416844 253 8497ft 145kts
16-Aug-20 12:42 37.531559 -115.465368 253 8498ft 144kts
16-Aug-20 12:43 37.519548 -115.513499 253 8498ft 144kts
16-Aug-20 12:44 37.507512 -115.561649 253 8498ft 144kts
16-Aug-20 12:45 37.495461 -115.609765 253 8498ft 144kts
16-Aug-20 12:46 37.483369 -115.657950 252 8497ft 144kts
16-Aug-20 12:47 37.471156 -115.706515 252 8444ft 146kts
16-Aug-20 12:48 37.458972 -115.754893 252 8442ft 143kts
16-Aug-20 12:49 37.446907 -115.802640 252 8443ft 143kts
16-Aug-20 12:50 37.434791 -115.850560 252 8443ft 143kts
16-Aug-20 12:51 37.422680 -115.898355 252 8443ft 143kts
16-Aug-20 12:52 37.410504 -115.946312 252 8443ft 143kts
16-Aug-20 12:53 37.398336 -115.994149 252 8443ft 143kts
16-Aug-20 12:54 37.386219 -116.041643 253 8443ft 142kts
16-Aug-20 12:55 37.374141 -116.088975 253 8443ft 141kts
16-Aug-20 12:55 37.364113 -116.128275 253 8444ft 141kts
16-Aug-20 12:56 37.352115 -116.175039 253 8448ft 140kts
16-Aug-20 12:58 37.338229 -116.229044 254 8456ft 138kts
16-Aug-20 12:59 37.326429 -116.274963 253 8473ft 139kts
16-Aug-20 12:59 37.316402 -116.313862 253 8474ft 141kts
16-Aug-20 13:00 37.303783 -116.362773 253 8473ft 152kts
16-Aug-20 13:02 37.288428 -116.422061 254 8466ft 148kts
16-Aug-20 13:02 37.278038 -116.462162 253 8491ft 142kts
16-Aug-20 13:03 37.265680 -116.509771 253 8529ft 147kts
16-Aug-20 13:04 37.252007 -116.562389 254 8583ft 170kts
16-Aug-20 13:05 37.236840 -116.620558 254 8628ft 175kts
16-Aug-20 13:06 37.221891 -116.677822 253 8652ft 168kts
16-Aug-20 13:07 37.207499 -116.732822 253 8653ft 164kts
16-Aug-20 13:08 37.193339 -116.786784 254 8654ft 162kts
16-Aug-20 13:09 37.179328 -116.840141 254 8654ft 160kts
16-Aug-20 13:10 37.164775 -116.895418 253 8464ft 166kts
16-Aug-20 13:11 37.150360 -116.949984 254 8455ft 162kts
16-Aug-20 13:12 37.136240 -117.003401 254 8451ft 160kts
16-Aug-20 13:13 37.122191 -117.056398 254 8452ft 159kts
16-Aug-20 13:14 37.108285 -117.108772 254 8459ft 158kts
16-Aug-20 13:15 37.095587 -117.156485 254 8461ft 157kts
16-Aug-20 13:16 37.081882 -117.207827 255 8615ft 148kts
16-Aug-20 13:17 37.068611 -117.257521 255 8624ft 152kts
16-Aug-20 13:18 37.055045 -117.308283 255 8606ft 155kts
16-Aug-20 13:19 37.041231 -117.359737 255 8584ft 156kts
16-Aug-20 13:20 37.027369 -117.411342 255 8561ft 156kts
16-Aug-20 13:21 37.013425 -117.463124 255 8542ft 156kts
16-Aug-20 13:22 36.999497 -117.514744 255 8528ft 156kts
16-Aug-20 13:23 36.985599 -117.566138 255 8519ft 155kts
16-Aug-20 13:24 36.971672 -117.617684 256 8516ft 155kts
16-Aug-20 13:25 36.959624 -117.670354 255 8463ft 157kts
16-Aug-20 13:26 36.945807 -117.722120 255 8463ft 156kts
16-Aug-20 13:27 36.931379 -117.775226 254 8668ft 161kts
16-Aug-20 13:28 36.917168 -117.827374 255 9096ft 154kts
16-Aug-20 13:29 36.903516 -117.877452 254 9439ft 154kts
16-Aug-20 13:30 36.889298 -117.929425 254 9433ft 158kts
16-Aug-20 13:31 36.875052 -117.981422 254 9433ft 158kts
16-Aug-20 13:32 36.860707 -118.033702 253 9317ft 160kts
16-Aug-20 13:33 36.846402 -118.085642 255 8870ft 155kts
16-Aug-20 13:34 36.831496 -118.139817 254 7949ft 166kts
16-Aug-20 13:35 36.816461 -118.189165 252 6989ft 146kts
16-Aug-20 13:36 36.840546 -118.212603 1 5844ft 145kts
16-Aug-20 13:37 36.879764 -118.209471 0 5049ft 132kts
16-Aug-20 13:38 36.913021 -118.208450 324 4933ft 104kts
16-Aug-20 13:39 36.901810 -118.226054 148 4940ft 111kts
16-Aug-20 13:40 36.873147 -118.216767 174 4915ft 108kts
16-Aug-20 13:41 36.845591 -118.214363 186 4391ft 102kts
16-Aug-20 13:42 36.819573 -118.206575 159 3901ft 87kts
16-Aug-20 13:43 36.810094 -118.202686 156 3907ft 7kts
16-Aug-20 13:44 36.809940 -118.202652 247 3907ft 0kts
16-Aug-20 13:45 36.809940 -118.202652 247 3907ft 0kts
16-Aug-20 13:46 36.809940 -118.202652 247 3907ft 0kts
16-Aug-20 13:47 36.809940 -118.202652 247 3907ft 0kts
16-Aug-20 13:48 36.809940 -118.202652 247 3907ft 0kts
16-Aug-20 13:49 36.809940 -118.202652 247 3907ft 0kts
16-Aug-20 13:50 36.809940 -118.202652 247 3907ft 0kts
16-Aug-20 13:51 36.809940 -118.202652 247 3907ft 0kts
16-Aug-20 13:52 36.809940 -118.202652 247 3907ft 0kts
16-Aug-20 13:53 36.809940 -118.202652 247 3907ft 0kts
16-Aug-20 13:54 36.809940 -118.202652 247 3907ft 0kts
16-Aug-20 13:55 36.809940 -118.202652 247 3907ft 0kts
16-Aug-20 13:56 36.809940 -118.202652 247 3907ft 0kts

Navigation Log

Ident Type
Flight plan parsing failed, navigation log unavailable